createdAt,value
2022-12-16T00:01:19.313Z,22.97
2022-12-16T00:03:49.684Z,22.07
2022-12-16T00:06:21.376Z,21.50
2022-12-16T00:08:49.375Z,20.83
2022-12-16T00:11:17.203Z,22.37
2022-12-16T00:13:45.101Z,23.80
2022-12-16T00:16:16.762Z,23.17
2022-12-16T00:18:45.944Z,23.13
2022-12-16T00:21:14.142Z,25.07
2022-12-16T00:23:42.582Z,22.33
2022-12-16T00:26:10.448Z,22.43
2022-12-16T00:28:38.590Z,21.37
2022-12-16T00:31:07.100Z,23.00
2022-12-16T00:33:36.762Z,21.50
2022-12-16T00:36:05.213Z,23.90
2022-12-16T00:38:33.205Z,21.60
2022-12-16T00:41:01.051Z,22.37
2022-12-16T00:43:29.157Z,22.50
2022-12-16T00:45:57.210Z,21.27
2022-12-16T00:48:25.847Z,21.20
2022-12-16T00:50:56.149Z,23.37
2022-12-16T00:53:25.764Z,22.90
2022-12-16T00:55:53.884Z,22.60
2022-12-16T00:58:21.786Z,22.43
2022-12-16T01:00:52.447Z,21.57
2022-12-16T01:03:21.947Z,22.07
2022-12-16T01:05:50.431Z,22.47
2022-12-16T01:08:19.830Z,21.37
2022-12-16T01:10:52.021Z,21.67
2022-12-16T01:13:20.396Z,21.97
2022-12-16T01:15:48.555Z,21.27
2022-12-16T01:18:16.708Z,21.40
2022-12-16T01:20:44.833Z,20.87
2022-12-16T01:23:12.707Z,20.77
2022-12-16T01:25:41.983Z,20.10
2022-12-16T01:28:10.003Z,19.60
2022-12-16T01:30:37.865Z,20.50
2022-12-16T01:33:05.663Z,20.97
2022-12-16T01:38:21.380Z,19.13
2022-12-16T01:40:51.599Z,21.33
2022-12-16T01:43:25.245Z,20.20
2022-12-16T01:45:54.369Z,20.17
2022-12-16T01:48:33.352Z,21.37
2022-12-16T01:51:05.781Z,20.47
2022-12-16T01:53:34.945Z,20.80
2022-12-16T01:56:04.632Z,19.57
2022-12-16T01:58:35.942Z,20.33
2022-12-16T02:01:04.486Z,20.83
2022-12-16T02:03:36.829Z,19.07
2022-12-16T02:06:07.971Z,20.57
2022-12-16T02:08:36.767Z,20.30
2022-12-16T02:11:30.094Z,21.27
2022-12-16T02:14:14.514Z,19.43
2022-12-16T02:16:51.665Z,19.80
2022-12-16T02:19:43.362Z,20.43
2022-12-16T02:22:26.816Z,19.00
2022-12-16T02:25:17.996Z,20.50
2022-12-16T02:27:56.871Z,19.97
2022-12-16T02:30:53.277Z,20.37
2022-12-16T02:34:10.934Z,20.07
2022-12-16T02:36:57.962Z,19.70
2022-12-16T02:39:34.966Z,19.67
2022-12-16T02:42:12.469Z,18.47
2022-12-16T02:44:49.918Z,18.60
2022-12-16T02:47:19.879Z,19.53
2022-12-16T02:49:50.549Z,18.37
2022-12-16T02:52:22.782Z,18.30
2022-12-16T02:54:55.430Z,19.90
2022-12-16T02:57:42.225Z,19.60
2022-12-16T03:00:13.687Z,17.60
2022-12-16T03:02:50.715Z,18.40
2022-12-16T03:05:24.578Z,19.30
2022-12-16T03:07:55.241Z,18.13
2022-12-16T03:10:27.566Z,19.20
2022-12-16T03:13:00.451Z,18.20
2022-12-16T03:15:32.173Z,17.93
2022-12-16T03:18:03.612Z,19.00
2022-12-16T03:20:37.008Z,20.13
2022-12-16T03:23:11.319Z,19.50
2022-12-16T03:25:44.254Z,19.13
2022-12-16T03:28:26.946Z,20.57
2022-12-16T03:31:01.210Z,18.67
2022-12-16T03:33:39.391Z,19.90
2022-12-16T03:36:13.992Z,20.17
2022-12-16T03:38:42.589Z,19.57
2022-12-16T03:41:10.644Z,20.07
2022-12-16T03:43:40.435Z,19.37
2022-12-16T03:46:09.724Z,19.67
2022-12-16T03:48:46.803Z,19.37
2022-12-16T03:51:14.736Z,19.97
2022-12-16T03:53:42.556Z,17.50
2022-12-16T03:56:10.703Z,19.27
2022-12-16T03:58:40.133Z,19.10
2022-12-16T04:01:09.332Z,18.73
2022-12-16T04:03:39.420Z,18.47
2022-12-16T04:06:08.014Z,17.20
2022-12-16T04:08:36.110Z,17.87
2022-12-16T04:11:21.966Z,18.27
2022-12-16T04:14:03.681Z,18.10
2022-12-16T04:16:49.877Z,16.33
2022-12-16T04:19:42.821Z,17.90
2022-12-16T04:22:32.944Z,16.50
2022-12-16T04:25:03.561Z,16.73
2022-12-16T04:27:31.375Z,16.57
2022-12-16T04:30:16.931Z,15.17
2022-12-16T04:33:02.221Z,14.37
2022-12-16T04:35:48.744Z,15.33
2022-12-16T04:38:34.078Z,15.83
2022-12-16T04:41:19.217Z,15.23
2022-12-16T04:44:04.717Z,15.87
2022-12-16T04:46:50.265Z,15.53
2022-12-16T04:49:35.551Z,15.30
2022-12-16T04:52:22.603Z,15.10
2022-12-16T04:55:07.716Z,15.57
2022-12-16T04:57:53.806Z,15.50
2022-12-16T05:00:39.100Z,14.17
2022-12-16T05:03:24.791Z,15.03
2022-12-16T05:06:10.267Z,15.47
2022-12-16T05:08:57.002Z,15.67
2022-12-16T05:11:42.579Z,15.53
2022-12-16T05:14:27.702Z,14.53
2022-12-16T05:17:18.166Z,16.40
2022-12-16T05:20:03.585Z,14.70
2022-12-16T05:22:49.054Z,15.60
2022-12-16T05:25:35.774Z,14.07
2022-12-16T05:28:21.571Z,13.93
2022-12-16T05:31:07.248Z,14.37
2022-12-16T05:33:52.743Z,14.17
2022-12-16T05:36:39.436Z,16.43
2022-12-16T05:39:24.635Z,16.87
2022-12-16T05:42:22.599Z,14.30
2022-12-16T05:45:07.881Z,12.73
2022-12-16T05:47:54.010Z,13.47
2022-12-16T05:50:40.150Z,14.83
2022-12-16T05:53:28.528Z,12.30
2022-12-16T05:56:13.716Z,13.40
2022-12-16T05:59:00.231Z,14.07
2022-12-16T06:01:45.453Z,15.07
2022-12-16T06:04:30.894Z,13.10
2022-12-16T06:07:15.896Z,12.27
2022-12-16T06:10:01.140Z,13.50
2022-12-16T06:12:46.365Z,13.10
2022-12-16T06:15:33.289Z,12.70
2022-12-16T06:18:18.439Z,12.47
2022-12-16T06:21:03.623Z,13.87
2022-12-16T06:23:48.838Z,13.47
2022-12-16T06:26:34.170Z,13.00
2022-12-16T06:29:19.162Z,12.03
2022-12-16T06:32:05.773Z,12.67
2022-12-16T06:34:51.001Z,12.60
2022-12-16T06:37:36.119Z,12.77
2022-12-16T06:40:22.136Z,12.53
2022-12-16T06:43:07.427Z,12.30
2022-12-16T06:45:52.646Z,13.43
2022-12-16T06:48:39.042Z,12.50
2022-12-16T06:51:24.325Z,13.13
2022-12-16T06:54:14.897Z,12.87
2022-12-16T06:57:00.423Z,12.33
2022-12-16T06:59:45.891Z,13.10
2022-12-16T07:02:31.352Z,12.60
2022-12-16T07:05:19.006Z,16.30
2022-12-16T07:08:07.896Z,12.77
2022-12-16T07:10:55.453Z,20.63
2022-12-16T07:13:42.159Z,13.97
2022-12-16T07:16:27.366Z,13.07
2022-12-16T07:19:12.800Z,13.20
2022-12-16T07:21:59.635Z,16.90
2022-12-16T07:24:45.102Z,13.60
2022-12-16T07:27:30.489Z,12.60
2022-12-16T07:30:15.735Z,12.03
2022-12-16T07:33:01.359Z,11.53
2022-12-16T07:35:46.467Z,12.60
2022-12-16T07:38:33.014Z,11.87
2022-12-16T07:41:18.479Z,11.90
2022-12-16T07:44:03.826Z,12.90
2022-12-16T07:46:49.023Z,12.07
2022-12-16T07:49:34.255Z,12.17
2022-12-16T07:52:19.399Z,12.40
2022-12-16T07:55:05.951Z,11.57
2022-12-16T07:57:51.290Z,11.83
2022-12-16T08:00:37.003Z,12.33
2022-12-16T08:03:22.388Z,11.03
2022-12-16T08:06:08.306Z,12.17
2022-12-16T08:08:53.693Z,11.97
2022-12-16T08:11:40.112Z,11.00
2022-12-16T08:14:34.448Z,10.70
2022-12-16T08:17:19.940Z,11.70
2022-12-16T08:20:05.388Z,12.67
2022-12-16T08:22:50.742Z,16.23
2022-12-16T08:25:36.612Z,16.97
2022-12-16T08:28:23.485Z,18.13
2022-12-16T08:31:09.574Z,17.27
2022-12-16T08:33:54.803Z,12.83
2022-12-16T08:36:41.247Z,13.07
2022-12-16T08:39:26.448Z,13.77
2022-12-16T08:42:11.797Z,12.50
2022-12-16T08:44:58.270Z,12.97
2022-12-16T08:47:43.835Z,12.63
2022-12-16T08:50:28.269Z,13.07
2022-12-16T08:53:13.787Z,12.80
2022-12-16T08:55:58.921Z,14.37
2022-12-16T08:58:44.365Z,12.90
2022-12-16T09:01:30.953Z,12.10
2022-12-16T09:04:16.170Z,11.70
2022-12-16T09:07:01.326Z,11.07
2022-12-16T09:09:46.542Z,11.77
2022-12-16T09:12:31.962Z,11.87
2022-12-16T09:15:19.389Z,11.60
2022-12-16T09:18:13.010Z,11.00
2022-12-16T09:20:58.784Z,10.20
2022-12-16T09:23:44.606Z,10.37
2022-12-16T09:26:30.171Z,9.90
2022-12-16T09:29:15.457Z,9.57
2022-12-16T09:32:00.969Z,12.30
2022-12-16T09:34:47.365Z,10.70
2022-12-16T09:37:32.590Z,12.00
2022-12-16T09:40:18.005Z,11.77
2022-12-16T09:43:09.268Z,12.23
2022-12-16T09:46:04.205Z,16.23
2022-12-16T09:49:00.132Z,10.33
2022-12-16T09:51:47.792Z,9.40
2022-12-16T09:54:38.134Z,9.33
2022-12-16T09:57:26.171Z,8.43
2022-12-16T10:00:15.893Z,12.07
2022-12-16T10:03:06.918Z,9.60
2022-12-16T10:06:02.558Z,9.17
2022-12-16T10:08:55.557Z,7.47
2022-12-16T10:11:46.475Z,8.23
2022-12-16T10:14:36.092Z,8.73
2022-12-16T10:17:30.516Z,9.53
2022-12-16T10:20:22.202Z,9.07
2022-12-16T10:23:14.491Z,7.60
2022-12-16T10:26:08.476Z,8.57
2022-12-16T10:29:03.914Z,8.73
2022-12-16T10:31:50.761Z,7.97
2022-12-16T10:34:39.578Z,6.87
2022-12-16T10:37:25.035Z,6.17
2022-12-16T10:40:16.627Z,6.73
2022-12-16T10:43:08.087Z,6.97
2022-12-16T10:45:59.165Z,6.20
2022-12-16T10:49:01.995Z,5.73
2022-12-16T10:51:48.392Z,5.63
2022-12-16T10:54:49.036Z,6.20
2022-12-16T10:57:45.253Z,7.37
2022-12-16T11:00:35.398Z,6.60
2022-12-16T11:03:39.508Z,6.83
2022-12-16T11:06:26.397Z,7.40
2022-12-16T11:09:11.872Z,5.83
2022-12-16T11:11:57.271Z,10.50
2022-12-16T11:14:59.468Z,7.40
2022-12-16T11:17:50.532Z,9.17
2022-12-16T11:20:38.535Z,7.90
2022-12-16T11:23:28.558Z,7.57
2022-12-16T11:26:29.386Z,7.20
2022-12-16T11:29:33.232Z,6.97
2022-12-16T11:32:21.762Z,6.60
2022-12-16T11:35:14.326Z,6.70
2022-12-16T11:38:02.261Z,6.67
2022-12-16T11:40:49.930Z,6.20
2022-12-16T11:43:37.208Z,6.90
2022-12-16T11:46:27.510Z,6.83
2022-12-16T11:49:23.483Z,7.17
2022-12-16T11:52:35.901Z,7.00
2022-12-16T11:56:02.915Z,7.37
2022-12-16T11:58:43.106Z,7.70
2022-12-16T12:01:32.914Z,7.90
2022-12-16T12:04:21.300Z,7.20
2022-12-16T12:07:22.916Z,8.27
2022-12-16T12:10:13.341Z,6.93
2022-12-16T12:13:01.006Z,7.50
2022-12-16T12:15:53.434Z,7.00
2022-12-16T12:18:59.827Z,7.57
2022-12-16T12:21:51.685Z,7.60
2022-12-16T12:24:47.739Z,8.77
2022-12-16T12:27:42.498Z,7.90
2022-12-16T12:30:31.447Z,8.20
2022-12-16T12:33:38.919Z,8.50
2022-12-16T12:36:38.284Z,8.47
2022-12-16T12:39:38.167Z,9.57
2022-12-16T12:42:36.864Z,8.27
2022-12-16T12:45:42.383Z,7.97
2022-12-16T12:48:37.913Z,8.33
2022-12-16T12:51:30.853Z,8.20
2022-12-16T12:54:27.665Z,7.67
2022-12-16T12:57:18.995Z,7.77
2022-12-16T13:00:11.748Z,7.90
2022-12-16T13:03:06.183Z,9.00
2022-12-16T13:05:55.315Z,7.90
2022-12-16T13:09:03.402Z,8.97
2022-12-16T13:11:49.236Z,8.20
2022-12-16T13:15:13.952Z,8.20
2022-12-16T13:18:38.845Z,8.60
2022-12-16T13:22:03.136Z,7.43
2022-12-16T13:25:01.358Z,7.63
2022-12-16T13:27:49.529Z,8.33
2022-12-16T13:30:43.883Z,8.70
2022-12-16T13:33:46.921Z,9.37
2022-12-16T13:36:35.298Z,8.53
2022-12-16T13:39:39.626Z,8.80
2022-12-16T13:42:25.278Z,8.57
2022-12-16T13:45:17.766Z,9.10
2022-12-16T13:48:22.849Z,9.30
2022-12-16T13:51:18.067Z,7.67
2022-12-16T13:54:08.116Z,7.70
2022-12-16T13:56:56.708Z,8.70
2022-12-16T13:59:45.222Z,7.70
2022-12-16T14:02:45.090Z,7.47
2022-12-16T14:05:40.738Z,7.03
2022-12-16T14:08:33.105Z,7.27
2022-12-16T14:11:21.821Z,7.13
2022-12-16T14:14:17.261Z,7.63
2022-12-16T14:17:10.791Z,6.77
2022-12-16T14:20:09.279Z,7.20
2022-12-16T14:23:10.719Z,7.63
2022-12-16T14:25:59.380Z,7.20
2022-12-16T14:28:48.117Z,6.83
2022-12-16T14:31:37.046Z,7.33
2022-12-16T14:34:23.322Z,6.83
2022-12-16T14:37:08.768Z,6.37
2022-12-16T14:39:58.209Z,6.77
2022-12-16T14:42:45.833Z,6.27
2022-12-16T14:45:45.349Z,7.43
2022-12-16T14:48:52.714Z,7.27
2022-12-16T14:51:46.615Z,7.53
2022-12-16T14:54:37.349Z,7.17
2022-12-16T14:57:28.809Z,8.03
2022-12-16T15:00:35.059Z,7.10
2022-12-16T15:03:26.834Z,8.17
2022-12-16T15:06:12.755Z,7.27
2022-12-16T15:09:07.804Z,7.40
2022-12-16T15:11:55.006Z,6.83
2022-12-16T15:14:47.526Z,7.27
2022-12-16T15:17:39.435Z,9.40
2022-12-16T15:20:33.147Z,7.97
2022-12-16T15:23:18.423Z,7.60
2022-12-16T15:26:08.230Z,7.70
2022-12-16T15:28:59.199Z,8.57
2022-12-16T15:31:50.500Z,7.60
2022-12-16T15:34:42.061Z,7.47
2022-12-16T15:37:36.270Z,8.97
2022-12-16T15:40:22.610Z,8.17
2022-12-16T15:43:11.289Z,9.43
2022-12-16T15:45:56.568Z,11.67
2022-12-16T15:48:46.450Z,15.67
2022-12-16T15:51:47.393Z,11.60
2022-12-16T15:54:35.913Z,11.47
2022-12-16T15:57:21.951Z,14.17
2022-12-16T16:00:16.433Z,12.00
2022-12-16T16:03:07.056Z,13.17
2022-12-16T16:05:54.531Z,10.83
2022-12-16T16:08:39.889Z,12.07
2022-12-16T16:11:26.660Z,14.93
2022-12-16T16:14:14.321Z,13.50
2022-12-16T16:17:00.050Z,13.53
2022-12-16T16:19:46.434Z,13.40
2022-12-16T16:22:34.598Z,12.27
2022-12-16T16:25:20.037Z,14.33
2022-12-16T16:28:05.505Z,14.30
2022-12-16T16:30:51.211Z,11.33
2022-12-16T16:33:36.967Z,10.90
2022-12-16T16:36:34.220Z,12.83
2022-12-16T16:39:21.209Z,14.13
2022-12-16T16:42:05.605Z,12.57
2022-12-16T16:44:51.106Z,11.60
2022-12-16T16:47:36.303Z,10.97
2022-12-16T16:50:22.180Z,11.60
2022-12-16T16:53:07.476Z,11.77
2022-12-16T16:55:53.847Z,11.27
2022-12-16T16:58:43.989Z,10.63
2022-12-16T17:01:31.697Z,12.33
2022-12-16T17:04:17.461Z,10.60
2022-12-16T17:07:02.613Z,10.03
2022-12-16T17:09:47.788Z,13.10
2022-12-16T17:12:38.496Z,12.10
2022-12-16T17:15:34.392Z,12.20
2022-12-16T17:18:20.356Z,13.00
2022-12-16T17:21:05.615Z,12.93
2022-12-16T17:23:50.748Z,14.03
2022-12-16T17:26:36.740Z,12.60
2022-12-16T17:29:23.844Z,10.50
2022-12-16T17:32:09.647Z,11.63
2022-12-16T17:34:54.831Z,13.17
2022-12-16T17:37:39.970Z,10.47
2022-12-16T17:40:26.052Z,10.57
2022-12-16T17:43:11.322Z,12.43
2022-12-16T17:45:57.763Z,12.90
2022-12-16T17:48:45.573Z,12.40
2022-12-16T17:51:31.065Z,12.50
2022-12-16T17:54:23.812Z,11.93
2022-12-16T17:57:14.417Z,10.90
2022-12-16T17:59:59.733Z,10.43
2022-12-16T18:02:46.414Z,10.53
2022-12-16T18:05:38.714Z,15.87
2022-12-16T18:08:24.829Z,14.23
2022-12-16T18:11:10.576Z,15.30
2022-12-16T18:13:55.858Z,12.47
2022-12-16T18:16:41.312Z,11.47
2022-12-16T18:19:29.807Z,12.67
2022-12-16T18:22:11.728Z,11.73
2022-12-16T18:24:57.151Z,14.10
2022-12-16T18:27:42.740Z,15.13
2022-12-16T18:30:30.178Z,11.93
2022-12-16T18:33:15.816Z,13.63
2022-12-16T18:36:02.439Z,13.43
2022-12-16T18:38:47.729Z,15.73
2022-12-16T18:41:34.565Z,12.83
2022-12-16T18:44:20.752Z,15.17
2022-12-16T18:47:06.489Z,14.60
2022-12-16T18:49:51.578Z,13.00
2022-12-16T18:52:38.854Z,14.73
2022-12-16T18:55:25.486Z,13.60
2022-12-16T18:58:34.936Z,13.60
2022-12-16T19:01:20.378Z,16.00
2022-12-16T19:04:05.786Z,13.93
2022-12-16T19:06:51.182Z,16.43
2022-12-16T19:09:37.933Z,12.40
2022-12-16T19:12:23.997Z,13.90
2022-12-16T19:15:09.222Z,12.70
2022-12-16T19:17:54.644Z,14.10
2022-12-16T19:20:36.870Z,20.63
2022-12-16T19:23:22.334Z,13.77
2022-12-16T19:26:15.237Z,13.87
2022-12-16T19:29:00.450Z,16.37
2022-12-16T19:31:45.899Z,13.17
2022-12-16T19:34:31.136Z,11.90
2022-12-16T19:37:16.732Z,12.37
2022-12-16T19:40:02.112Z,11.40
2022-12-16T19:42:49.161Z,11.27
2022-12-16T19:45:35.011Z,11.70
2022-12-16T19:48:20.846Z,11.93
2022-12-16T19:51:06.225Z,12.40
2022-12-16T19:53:50.683Z,12.73
2022-12-16T19:56:37.310Z,11.53
2022-12-16T19:59:23.885Z,11.40
2022-12-16T20:02:14.816Z,13.60
2022-12-16T20:05:00.504Z,13.90
2022-12-16T20:07:46.175Z,14.27
2022-12-16T20:10:31.764Z,12.07
2022-12-16T20:13:24.928Z,13.17
2022-12-16T20:16:22.681Z,14.33
2022-12-16T20:19:08.337Z,12.03
2022-12-16T20:21:57.060Z,12.17
2022-12-16T20:24:44.469Z,11.90
2022-12-16T20:27:30.896Z,12.23
2022-12-16T20:30:18.505Z,12.93
2022-12-16T20:33:06.577Z,11.80
2022-12-16T20:35:52.280Z,13.77
2022-12-16T20:38:41.774Z,13.77
2022-12-16T20:41:27.308Z,12.60
2022-12-16T20:44:12.387Z,16.73
2022-12-16T20:46:58.013Z,30.77
2022-12-16T20:49:44.899Z,24.30
2022-12-16T20:52:30.186Z,17.23
2022-12-16T20:55:16.469Z,61.13
2022-12-16T20:58:01.887Z,36.57
2022-12-16T21:00:46.641Z,54.20
2022-12-16T21:03:32.195Z,108.13
2022-12-16T21:06:18.833Z,59.67
2022-12-16T21:09:04.236Z,24.37
2022-12-16T21:11:49.591Z,33.43
2022-12-16T21:14:35.226Z,21.67
2022-12-16T21:17:20.386Z,15.67
2022-12-16T21:20:06.729Z,15.00
2022-12-16T21:22:54.351Z,13.43
2022-12-16T21:25:44.674Z,14.77
2022-12-16T21:28:30.188Z,19.03
2022-12-16T21:31:16.511Z,16.43
2022-12-16T21:34:01.920Z,15.40
2022-12-16T21:36:47.185Z,14.77
2022-12-16T21:39:34.133Z,14.10
2022-12-16T21:42:19.300Z,15.43
2022-12-16T21:45:04.459Z,13.83
2022-12-16T21:47:49.726Z,15.77
2022-12-16T21:50:35.534Z,15.23
2022-12-16T21:53:21.080Z,14.63
2022-12-16T21:56:11.562Z,13.83
2022-12-16T21:58:56.826Z,14.53
2022-12-16T22:01:42.364Z,16.40
2022-12-16T22:04:28.117Z,15.30
2022-12-16T22:07:13.692Z,14.30
2022-12-16T22:09:59.755Z,15.07
2022-12-16T22:12:46.674Z,16.53
2022-12-16T22:15:32.302Z,15.27
2022-12-16T22:18:18.578Z,21.87
2022-12-16T22:21:14.505Z,19.53
2022-12-16T22:23:59.874Z,18.13
2022-12-16T22:26:45.482Z,16.40
2022-12-16T22:29:32.263Z,16.50
2022-12-16T22:32:20.557Z,19.83
2022-12-16T22:35:05.763Z,17.93
2022-12-16T22:37:51.374Z,18.30
2022-12-16T22:40:37.151Z,18.30
2022-12-16T22:43:22.696Z,18.57
2022-12-16T22:46:18.832Z,17.40
2022-12-16T22:49:19.787Z,16.43
2022-12-16T22:52:06.159Z,16.53
2022-12-16T22:54:52.018Z,17.13
2022-12-16T22:57:38.958Z,16.47
2022-12-16T23:00:25.800Z,19.03
2022-12-16T23:03:15.062Z,20.33
2022-12-16T23:06:00.228Z,19.77
2022-12-16T23:08:44.638Z,20.93
2022-12-16T23:11:36.329Z,19.97
2022-12-16T23:14:21.739Z,19.77
2022-12-16T23:17:07.052Z,19.23
2022-12-16T23:19:53.489Z,18.50
2022-12-16T23:22:41.963Z,18.50
2022-12-16T23:25:27.708Z,18.67
2022-12-16T23:28:13.267Z,18.30
2022-12-16T23:31:00.355Z,16.30
2022-12-16T23:33:46.324Z,16.27
2022-12-16T23:36:32.808Z,16.70
2022-12-16T23:39:18.130Z,15.67
2022-12-16T23:42:03.494Z,14.53
2022-12-16T23:44:53.757Z,16.40
2022-12-16T23:47:42.159Z,16.17
2022-12-16T23:50:27.867Z,16.30
2022-12-16T23:53:23.578Z,15.67
2022-12-16T23:56:09.488Z,15.80
2022-12-16T23:58:56.388Z,16.53
